sensor_id;sensor_type;location;lat;lon;timestamp;temperature;humidity
17697;DHT22;8967;47.984;7.842;2023-02-25T00:01:59;8.70;99.90
17697;DHT22;8967;47.984;7.842;2023-02-25T00:04:26;8.60;99.90
17697;DHT22;8967;47.984;7.842;2023-02-25T00:06:53;8.60;99.90
17697;DHT22;8967;47.984;7.842;2023-02-25T00:09:21;8.60;99.90
17697;DHT22;8967;47.984;7.842;2023-02-25T00:11:49;8.60;99.90
17697;DHT22;8967;47.984;7.842;2023-02-25T00:14:16;8.60;99.90
17697;DHT22;8967;47.984;7.842;2023-02-25T00:16:43;8.60;99.90
17697;DHT22;8967;47.984;7.842;2023-02-25T00:19:10;8.60;99.90
17697;DHT22;8967;47.984;7.842;2023-02-25T00:21:39;8.60;99.90
17697;DHT22;8967;47.984;7.842;2023-02-25T00:24:06;8.60;99.90
17697;DHT22;8967;47.984;7.842;2023-02-25T00:26:33;8.60;99.90
17697;DHT22;8967;47.984;7.842;2023-02-25T00:29:01;8.50;99.90
17697;DHT22;8967;47.984;7.842;2023-02-25T00:31:31;8.50;99.90
17697;DHT22;8967;47.984;7.842;2023-02-25T00:33:58;8.50;99.90
17697;DHT22;8967;47.984;7.842;2023-02-25T00:36:26;8.50;99.90
17697;DHT22;8967;47.984;7.842;2023-02-25T00:38:54;8.50;99.90
17697;DHT22;8967;47.984;7.842;2023-02-25T00:41:24;8.50;99.90
17697;DHT22;8967;47.984;7.842;2023-02-25T00:43:54;8.40;99.90
17697;DHT22;8967;47.984;7.842;2023-02-25T00:46:23;8.50;99.90
17697;DHT22;8967;47.984;7.842;2023-02-25T00:48:53;8.50;99.90
17697;DHT22;8967;47.984;7.842;2023-02-25T00:51:23;8.50;99.90
17697;DHT22;8967;47.984;7.842;2023-02-25T00:53:51;8.50;99.90
17697;DHT22;8967;47.984;7.842;2023-02-25T00:56:22;8.50;99.90
17697;DHT22;8967;47.984;7.842;2023-02-25T00:58:50;8.50;99.90
17697;DHT22;8967;47.984;7.842;2023-02-25T01:01:24;8.50;99.90
17697;DHT22;8967;47.984;7.842;2023-02-25T01:03:52;8.50;99.90
17697;DHT22;8967;47.984;7.842;2023-02-25T01:06:24;8.50;99.90
17697;DHT22;8967;47.984;7.842;2023-02-25T01:08:53;8.50;99.90
17697;DHT22;8967;47.984;7.842;2023-02-25T01:11:21;8.50;99.90
17697;DHT22;8967;47.984;7.842;2023-02-25T01:13:52;8.50;99.90
17697;DHT22;8967;47.984;7.842;2023-02-25T01:16:21;8.50;99.90
17697;DHT22;8967;47.984;7.842;2023-02-25T01:18:52;8.50;99.90
17697;DHT22;8967;47.984;7.842;2023-02-25T01:21:23;8.40;99.90
17697;DHT22;8967;47.984;7.842;2023-02-25T01:23:55;8.50;99.90
17697;DHT22;8967;47.984;7.842;2023-02-25T01:26:24;8.50;99.90
17697;DHT22;8967;47.984;7.842;2023-02-25T01:28:51;8.50;99.90
17697;DHT22;8967;47.984;7.842;2023-02-25T01:31:19;8.50;99.90
17697;DHT22;8967;47.984;7.842;2023-02-25T01:33:49;8.50;99.90
17697;DHT22;8967;47.984;7.842;2023-02-25T01:36:17;8.50;99.90
17697;DHT22;8967;47.984;7.842;2023-02-25T01:38:46;8.50;99.90
17697;DHT22;8967;47.984;7.842;2023-02-25T01:41:13;8.40;99.90
17697;DHT22;8967;47.984;7.842;2023-02-25T01:43:40;8.40;99.90
17697;DHT22;8967;47.984;7.842;2023-02-25T01:46:09;8.40;99.90
17697;DHT22;8967;47.984;7.842;2023-02-25T01:48:38;8.40;99.90
17697;DHT22;8967;47.984;7.842;2023-02-25T01:51:07;8.50;99.90
17697;DHT22;8967;47.984;7.842;2023-02-25T01:53:40;8.50;99.90
17697;DHT22;8967;47.984;7.842;2023-02-25T01:56:09;8.40;99.90
17697;DHT22;8967;47.984;7.842;2023-02-25T01:58:38;8.40;99.90
17697;DHT22;8967;47.984;7.842;2023-02-25T02:01:07;8.40;99.90
17697;DHT22;8967;47.984;7.842;2023-02-25T02:03:37;8.40;99.90
17697;DHT22;8967;47.984;7.842;2023-02-25T02:06:09;8.40;99.90
17697;DHT22;8967;47.984;7.842;2023-02-25T02:08:41;8.30;99.90
17697;DHT22;8967;47.984;7.842;2023-02-25T02:11:10;8.30;99.90
17697;DHT22;8967;47.984;7.842;2023-02-25T02:13:39;8.30;99.90
17697;DHT22;8967;47.984;7.842;2023-02-25T02:16:18;8.30;99.90
17697;DHT22;8967;47.984;7.842;2023-02-25T02:18:50;8.30;99.90
17697;DHT22;8967;47.984;7.842;2023-02-25T02:21:39;8.20;99.90
17697;DHT22;8967;47.984;7.842;2023-02-25T02:24:40;8.20;99.90
17697;DHT22;8967;47.984;7.842;2023-02-25T02:27:13;8.20;99.90
17697;DHT22;8967;47.984;7.842;2023-02-25T02:30:13;8.20;99.90
17697;DHT22;8967;47.984;7.842;2023-02-25T02:32:53;8.20;99.90
17697;DHT22;8967;47.984;7.842;2023-02-25T02:35:29;8.20;99.90
17697;DHT22;8967;47.984;7.842;2023-02-25T02:38:09;8.20;99.90
17697;DHT22;8967;47.984;7.842;2023-02-25T02:40:42;8.10;99.90
17697;DHT22;8967;47.984;7.842;2023-02-25T02:43:22;8.10;99.90
17697;DHT22;8967;47.984;7.842;2023-02-25T02:45:58;8.10;99.90
17697;DHT22;8967;47.984;7.842;2023-02-25T02:48:33;8.10;99.90
17697;DHT22;8967;47.984;7.842;2023-02-25T02:51:06;8.10;99.90
17697;DHT22;8967;47.984;7.842;2023-02-25T02:53:38;8.10;99.90
17697;DHT22;8967;47.984;7.842;2023-02-25T02:56:12;8.10;99.90
17697;DHT22;8967;47.984;7.842;2023-02-25T02:58:46;8.10;99.90
17697;DHT22;8967;47.984;7.842;2023-02-25T03:01:16;8.10;99.90
17697;DHT22;8967;47.984;7.842;2023-02-25T03:03:49;8.10;99.90
17697;DHT22;8967;47.984;7.842;2023-02-25T03:06:26;8.10;99.90
17697;DHT22;8967;47.984;7.842;2023-02-25T03:08:58;8.10;99.90
17697;DHT22;8967;47.984;7.842;2023-02-25T03:11:28;8.10;99.90
17697;DHT22;8967;47.984;7.842;2023-02-25T03:13:55;8.10;99.90
17697;DHT22;8967;47.984;7.842;2023-02-25T03:16:28;8.00;99.90
17697;DHT22;8967;47.984;7.842;2023-02-25T03:19:01;8.00;99.90
17697;DHT22;8967;47.984;7.842;2023-02-25T03:21:35;8.00;99.90
17697;DHT22;8967;47.984;7.842;2023-02-25T03:24:12;8.00;99.90
17697;DHT22;8967;47.984;7.842;2023-02-25T03:26:41;7.90;99.90
17697;DHT22;8967;47.984;7.842;2023-02-25T03:29:15;7.90;99.90
17697;DHT22;8967;47.984;7.842;2023-02-25T03:31:46;7.90;99.90
17697;DHT22;8967;47.984;7.842;2023-02-25T03:34:21;7.90;99.90
17697;DHT22;8967;47.984;7.842;2023-02-25T03:36:52;7.90;99.90
17697;DHT22;8967;47.984;7.842;2023-02-25T03:39:26;7.90;99.90
17697;DHT22;8967;47.984;7.842;2023-02-25T03:41:59;7.90;99.90
17697;DHT22;8967;47.984;7.842;2023-02-25T03:44:32;7.80;99.90
17697;DHT22;8967;47.984;7.842;2023-02-25T03:47:01;7.80;99.90
17697;DHT22;8967;47.984;7.842;2023-02-25T03:49:34;7.80;99.90
17697;DHT22;8967;47.984;7.842;2023-02-25T03:52:06;7.80;99.90
17697;DHT22;8967;47.984;7.842;2023-02-25T03:54:36;7.90;99.90
17697;DHT22;8967;47.984;7.842;2023-02-25T03:57:03;7.90;99.90
17697;DHT22;8967;47.984;7.842;2023-02-25T03:59:32;7.90;99.90
17697;DHT22;8967;47.984;7.842;2023-02-25T04:02:00;7.80;99.90
17697;DHT22;8967;47.984;7.842;2023-02-25T04:04:27;7.80;99.90
17697;DHT22;8967;47.984;7.842;2023-02-25T04:06:55;7.80;99.90
17697;DHT22;8967;47.984;7.842;2023-02-25T04:09:25;7.80;99.90
17697;DHT22;8967;47.984;7.842;2023-02-25T04:11:51;7.70;99.90
17697;DHT22;8967;47.984;7.842;2023-02-25T04:14:24;7.70;99.90
17697;DHT22;8967;47.984;7.842;2023-02-25T04:16:51;7.70;99.90
17697;DHT22;8967;47.984;7.842;2023-02-25T04:19:18;7.70;99.90
17697;DHT22;8967;47.984;7.842;2023-02-25T04:21:45;7.70;99.90
17697;DHT22;8967;47.984;7.842;2023-02-25T04:24:13;7.70;99.90
17697;DHT22;8967;47.984;7.842;2023-02-25T04:26:40;7.70;99.90
17697;DHT22;8967;47.984;7.842;2023-02-25T04:29:07;7.60;99.90
17697;DHT22;8967;47.984;7.842;2023-02-25T04:31:36;7.60;99.90
17697;DHT22;8967;47.984;7.842;2023-02-25T04:34:05;7.60;99.90
17697;DHT22;8967;47.984;7.842;2023-02-25T04:36:35;7.50;99.90
17697;DHT22;8967;47.984;7.842;2023-02-25T04:39:03;7.50;99.90
17697;DHT22;8967;47.984;7.842;2023-02-25T04:41:34;7.50;99.90
17697;DHT22;8967;47.984;7.842;2023-02-25T04:44:04;7.50;99.90
17697;DHT22;8967;47.984;7.842;2023-02-25T04:46:33;7.50;99.90
17697;DHT22;8967;47.984;7.842;2023-02-25T04:49:00;7.40;99.90
17697;DHT22;8967;47.984;7.842;2023-02-25T04:51:27;7.40;99.90
17697;DHT22;8967;47.984;7.842;2023-02-25T04:53:54;7.40;99.90
17697;DHT22;8967;47.984;7.842;2023-02-25T04:56:21;7.40;99.90
17697;DHT22;8967;47.984;7.842;2023-02-25T04:58:52;7.40;99.90
17697;DHT22;8967;47.984;7.842;2023-02-25T05:01:19;7.30;99.90
17697;DHT22;8967;47.984;7.842;2023-02-25T05:03:46;7.30;99.90
17697;DHT22;8967;47.984;7.842;2023-02-25T05:06:13;7.30;99.90
17697;DHT22;8967;47.984;7.842;2023-02-25T05:08:40;7.30;99.90
17697;DHT22;8967;47.984;7.842;2023-02-25T05:11:09;7.30;99.90
17697;DHT22;8967;47.984;7.842;2023-02-25T05:13:36;7.30;99.90
17697;DHT22;8967;47.984;7.842;2023-02-25T05:16:07;7.30;99.90
17697;DHT22;8967;47.984;7.842;2023-02-25T05:18:39;7.30;99.90
17697;DHT22;8967;47.984;7.842;2023-02-25T05:21:08;7.30;99.90
17697;DHT22;8967;47.984;7.842;2023-02-25T05:23:36;7.30;99.90
17697;DHT22;8967;47.984;7.842;2023-02-25T05:26:03;7.30;99.90
17697;DHT22;8967;47.984;7.842;2023-02-25T05:28:31;7.20;99.90
17697;DHT22;8967;47.984;7.842;2023-02-25T05:30:58;7.30;99.90
17697;DHT22;8967;47.984;7.842;2023-02-25T05:33:26;7.20;99.90
17697;DHT22;8967;47.984;7.842;2023-02-25T05:35:53;7.20;99.90
17697;DHT22;8967;47.984;7.842;2023-02-25T05:38:20;7.20;99.90
17697;DHT22;8967;47.984;7.842;2023-02-25T05:40:46;7.20;99.90
17697;DHT22;8967;47.984;7.842;2023-02-25T05:43:13;7.20;99.90
17697;DHT22;8967;47.984;7.842;2023-02-25T05:45:40;7.10;99.90
17697;DHT22;8967;47.984;7.842;2023-02-25T05:48:07;7.10;99.90
17697;DHT22;8967;47.984;7.842;2023-02-25T05:50:38;7.10;99.90
17697;DHT22;8967;47.984;7.842;2023-02-25T05:53:06;7.20;99.90
17697;DHT22;8967;47.984;7.842;2023-02-25T05:55:34;7.10;99.90
17697;DHT22;8967;47.984;7.842;2023-02-25T05:58:00;7.10;99.90
17697;DHT22;8967;47.984;7.842;2023-02-25T06:00:27;7.10;99.90
17697;DHT22;8967;47.984;7.842;2023-02-25T06:02:54;7.10;99.90
17697;DHT22;8967;47.984;7.842;2023-02-25T06:05:21;7.10;99.90
17697;DHT22;8967;47.984;7.842;2023-02-25T06:07:49;7.10;99.90
17697;DHT22;8967;47.984;7.842;2023-02-25T06:10:16;7.10;99.90
17697;DHT22;8967;47.984;7.842;2023-02-25T06:12:43;7.10;99.90
17697;DHT22;8967;47.984;7.842;2023-02-25T06:15:10;7.10;99.90
17697;DHT22;8967;47.984;7.842;2023-02-25T06:17:39;7.10;99.90
17697;DHT22;8967;47.984;7.842;2023-02-25T06:20:06;7.10;99.90
17697;DHT22;8967;47.984;7.842;2023-02-25T06:22:34;7.10;99.90
17697;DHT22;8967;47.984;7.842;2023-02-25T06:25:05;7.10;99.90
17697;DHT22;8967;47.984;7.842;2023-02-25T06:27:35;7.10;99.90
17697;DHT22;8967;47.984;7.842;2023-02-25T06:30:04;7.10;99.90
17697;DHT22;8967;47.984;7.842;2023-02-25T06:32:31;7.10;99.90
17697;DHT22;8967;47.984;7.842;2023-02-25T06:34:58;7.00;99.90
17697;DHT22;8967;47.984;7.842;2023-02-25T06:37:28;7.00;99.90
17697;DHT22;8967;47.984;7.842;2023-02-25T06:39:55;7.00;99.90
17697;DHT22;8967;47.984;7.842;2023-02-25T06:42:23;7.00;99.90
17697;DHT22;8967;47.984;7.842;2023-02-25T06:44:50;7.00;99.90
17697;DHT22;8967;47.984;7.842;2023-02-25T06:47:17;7.00;99.90
17697;DHT22;8967;47.984;7.842;2023-02-25T06:49:43;7.00;99.90
17697;DHT22;8967;47.984;7.842;2023-02-25T06:52:10;7.00;99.90
17697;DHT22;8967;47.984;7.842;2023-02-25T06:54:37;7.00;99.90
17697;DHT22;8967;47.984;7.842;2023-02-25T06:57:04;7.00;99.90
17697;DHT22;8967;47.984;7.842;2023-02-25T06:59:32;7.00;99.90
17697;DHT22;8967;47.984;7.842;2023-02-25T07:02:00;7.00;99.90
17697;DHT22;8967;47.984;7.842;2023-02-25T07:04:29;7.00;99.90
17697;DHT22;8967;47.984;7.842;2023-02-25T07:06:56;6.90;99.90
17697;DHT22;8967;47.984;7.842;2023-02-25T07:09:23;7.00;99.90
17697;DHT22;8967;47.984;7.842;2023-02-25T07:11:50;7.00;99.90
17697;DHT22;8967;47.984;7.842;2023-02-25T07:14:17;7.00;99.90
17697;DHT22;8967;47.984;7.842;2023-02-25T07:16:45;7.00;99.90
17697;DHT22;8967;47.984;7.842;2023-02-25T07:19:12;6.90;99.90
17697;DHT22;8967;47.984;7.842;2023-02-25T07:21:41;7.00;99.90
17697;DHT22;8967;47.984;7.842;2023-02-25T07:24:09;7.00;99.90
17697;DHT22;8967;47.984;7.842;2023-02-25T07:26:36;7.00;99.90
17697;DHT22;8967;47.984;7.842;2023-02-25T07:29:04;7.00;99.90
17697;DHT22;8967;47.984;7.842;2023-02-25T07:31:33;7.00;99.90
17697;DHT22;8967;47.984;7.842;2023-02-25T07:34:01;7.00;99.90
17697;DHT22;8967;47.984;7.842;2023-02-25T07:36:29;7.00;99.90
17697;DHT22;8967;47.984;7.842;2023-02-25T07:38:58;7.00;99.90
17697;DHT22;8967;47.984;7.842;2023-02-25T07:41:27;7.00;99.90
17697;DHT22;8967;47.984;7.842;2023-02-25T07:44:00;7.10;99.90
17697;DHT22;8967;47.984;7.842;2023-02-25T07:46:28;7.10;99.90
17697;DHT22;8967;47.984;7.842;2023-02-25T07:48:58;7.10;99.90
17697;DHT22;8967;47.984;7.842;2023-02-25T07:51:26;7.00;99.90
17697;DHT22;8967;47.984;7.842;2023-02-25T07:53:56;7.00;99.90
17697;DHT22;8967;47.984;7.842;2023-02-25T07:56:25;7.10;99.90
17697;DHT22;8967;47.984;7.842;2023-02-25T07:58:52;7.10;99.90
17697;DHT22;8967;47.984;7.842;2023-02-25T08:01:22;7.10;99.90
17697;DHT22;8967;47.984;7.842;2023-02-25T08:03:51;7.10;99.90
17697;DHT22;8967;47.984;7.842;2023-02-25T08:06:18;7.10;99.90
17697;DHT22;8967;47.984;7.842;2023-02-25T08:08:47;7.10;99.90
17697;DHT22;8967;47.984;7.842;2023-02-25T08:11:15;7.10;99.90
17697;DHT22;8967;47.984;7.842;2023-02-25T08:13:42;7.10;99.90
17697;DHT22;8967;47.984;7.842;2023-02-25T08:16:10;7.10;99.70
17697;DHT22;8967;47.984;7.842;2023-02-25T08:18:38;7.10;99.70
17697;DHT22;8967;47.984;7.842;2023-02-25T08:21:07;7.20;99.90
17697;DHT22;8967;47.984;7.842;2023-02-25T08:23:36;7.20;99.50
17697;DHT22;8967;47.984;7.842;2023-02-25T08:26:06;7.20;99.10
17697;DHT22;8967;47.984;7.842;2023-02-25T08:28:34;7.20;98.50
17697;DHT22;8967;47.984;7.842;2023-02-25T08:31:02;7.20;98.60
17697;DHT22;8967;47.984;7.842;2023-02-25T08:33:31;7.20;98.20
17697;DHT22;8967;47.984;7.842;2023-02-25T08:36:05;7.20;97.90
17697;DHT22;8967;47.984;7.842;2023-02-25T08:38:34;7.20;97.80
17697;DHT22;8967;47.984;7.842;2023-02-25T08:41:02;7.20;98.00
17697;DHT22;8967;47.984;7.842;2023-02-25T08:43:30;7.20;97.50
17697;DHT22;8967;47.984;7.842;2023-02-25T08:46:00;7.20;97.60
17697;DHT22;8967;47.984;7.842;2023-02-25T08:48:28;7.20;97.00
17697;DHT22;8967;47.984;7.842;2023-02-25T08:50:55;7.20;97.00
17697;DHT22;8967;47.984;7.842;2023-02-25T08:53:22;7.20;96.70
17697;DHT22;8967;47.984;7.842;2023-02-25T08:55:51;7.20;96.50
17697;DHT22;8967;47.984;7.842;2023-02-25T08:58:18;7.20;96.30
17697;DHT22;8967;47.984;7.842;2023-02-25T09:00:46;7.20;96.00
17697;DHT22;8967;47.984;7.842;2023-02-25T09:03:16;7.30;95.20
17697;DHT22;8967;47.984;7.842;2023-02-25T09:05:49;7.20;95.40
17697;DHT22;8967;47.984;7.842;2023-02-25T09:08:16;7.20;95.60
17697;DHT22;8967;47.984;7.842;2023-02-25T09:10:43;7.30;95.40
17697;DHT22;8967;47.984;7.842;2023-02-25T09:13:10;7.20;95.00
17697;DHT22;8967;47.984;7.842;2023-02-25T09:15:37;7.30;95.00
17697;DHT22;8967;47.984;7.842;2023-02-25T09:18:05;7.30;94.20
17697;DHT22;8967;47.984;7.842;2023-02-25T09:20:32;7.30;94.30
17697;DHT22;8967;47.984;7.842;2023-02-25T09:22:59;7.30;94.30
17697;DHT22;8967;47.984;7.842;2023-02-25T09:25:29;7.30;94.20
17697;DHT22;8967;47.984;7.842;2023-02-25T09:27:56;7.40;94.10
17697;DHT22;8967;47.984;7.842;2023-02-25T09:30:23;7.40;93.10
17697;DHT22;8967;47.984;7.842;2023-02-25T09:32:51;7.30;92.20
17697;DHT22;8967;47.984;7.842;2023-02-25T09:35:19;7.40;90.90
17697;DHT22;8967;47.984;7.842;2023-02-25T09:37:46;7.40;91.10
17697;DHT22;8967;47.984;7.842;2023-02-25T09:40:14;7.40;89.70
17697;DHT22;8967;47.984;7.842;2023-02-25T09:42:54;7.40;90.30
17697;DHT22;8967;47.984;7.842;2023-02-25T09:45:30;7.50;90.30
17697;DHT22;8967;47.984;7.842;2023-02-25T09:48:00;7.40;90.00
17697;DHT22;8967;47.984;7.842;2023-02-25T09:50:31;7.40;90.10
17697;DHT22;8967;47.984;7.842;2023-02-25T09:53:04;7.50;88.00
17697;DHT22;8967;47.984;7.842;2023-02-25T09:55:35;7.50;88.90
17697;DHT22;8967;47.984;7.842;2023-02-25T09:58:06;7.50;89.40
17697;DHT22;8967;47.984;7.842;2023-02-25T10:00:40;7.50;88.40
17697;DHT22;8967;47.984;7.842;2023-02-25T10:03:16;7.50;89.20
17697;DHT22;8967;47.984;7.842;2023-02-25T10:05:52;7.50;88.40
17697;DHT22;8967;47.984;7.842;2023-02-25T10:08:27;7.50;86.80
17697;DHT22;8967;47.984;7.842;2023-02-25T10:11:01;7.50;87.00
17697;DHT22;8967;47.984;7.842;2023-02-25T10:13:40;7.50;87.00
17697;DHT22;8967;47.984;7.842;2023-02-25T10:16:27;7.60;87.00
17697;DHT22;8967;47.984;7.842;2023-02-25T10:19:07;7.50;87.10
17697;DHT22;8967;47.984;7.842;2023-02-25T10:21:59;7.60;86.70
17697;DHT22;8967;47.984;7.842;2023-02-25T10:24:34;7.60;87.00
17697;DHT22;8967;47.984;7.842;2023-02-25T10:27:10;7.60;85.90
17697;DHT22;8967;47.984;7.842;2023-02-25T10:29:46;7.60;85.90
17697;DHT22;8967;47.984;7.842;2023-02-25T10:32:17;7.60;85.70
17697;DHT22;8967;47.984;7.842;2023-02-25T10:34:48;7.70;85.60
17697;DHT22;8967;47.984;7.842;2023-02-25T10:37:19;7.70;84.50
17697;DHT22;8967;47.984;7.842;2023-02-25T10:39:48;7.70;84.90
17697;DHT22;8967;47.984;7.842;2023-02-25T10:42:16;7.70;85.10
17697;DHT22;8967;47.984;7.842;2023-02-25T10:44:44;7.80;84.40
17697;DHT22;8967;47.984;7.842;2023-02-25T10:47:17;7.80;85.00
17697;DHT22;8967;47.984;7.842;2023-02-25T10:53:01;7.80;84.90
17697;DHT22;8967;47.984;7.842;2023-02-25T10:55:47;7.80;84.40
17697;DHT22;8967;47.984;7.842;2023-02-25T10:58:27;7.80;84.90
17697;DHT22;8967;47.984;7.842;2023-02-25T11:00:58;7.80;83.70
17697;DHT22;8967;47.984;7.842;2023-02-25T11:03:29;7.90;82.10
17697;DHT22;8967;47.984;7.842;2023-02-25T11:06:16;7.90;83.10
17697;DHT22;8967;47.984;7.842;2023-02-25T11:08:45;7.90;83.10
17697;DHT22;8967;47.984;7.842;2023-02-25T11:11:15;7.90;82.80
17697;DHT22;8967;47.984;7.842;2023-02-25T11:13:44;7.90;80.60
17697;DHT22;8967;47.984;7.842;2023-02-25T11:16:19;7.90;80.30
17697;DHT22;8967;47.984;7.842;2023-02-25T11:18:50;7.90;80.90
17697;DHT22;8967;47.984;7.842;2023-02-25T11:21:27;8.00;80.20
17697;DHT22;8967;47.984;7.842;2023-02-25T11:23:58;8.00;80.50
17697;DHT22;8967;47.984;7.842;2023-02-25T11:26:31;8.00;80.70
17697;DHT22;8967;47.984;7.842;2023-02-25T11:29:01;8.10;81.10
17697;DHT22;8967;47.984;7.842;2023-02-25T11:31:32;8.10;81.10
17697;DHT22;8967;47.984;7.842;2023-02-25T11:34:04;8.00;80.10
17697;DHT22;8967;47.984;7.842;2023-02-25T11:36:34;8.00;80.10
17697;DHT22;8967;47.984;7.842;2023-02-25T11:39:10;8.00;80.20
17697;DHT22;8967;47.984;7.842;2023-02-25T11:41:39;8.00;80.50
17697;DHT22;8967;47.984;7.842;2023-02-25T11:44:29;8.00;80.40
17697;DHT22;8967;47.984;7.842;2023-02-25T11:47:19;8.00;81.40
17697;DHT22;8967;47.984;7.842;2023-02-25T11:50:05;8.10;80.80
17697;DHT22;8967;47.984;7.842;2023-02-25T11:52:41;8.10;79.90
17697;DHT22;8967;47.984;7.842;2023-02-25T11:55:28;8.20;81.00
17697;DHT22;8967;47.984;7.842;2023-02-25T11:58:07;8.20;80.50
17697;DHT22;8967;47.984;7.842;2023-02-25T12:00:41;8.30;79.50
17697;DHT22;8967;47.984;7.842;2023-02-25T12:03:34;8.30;79.40
17697;DHT22;8967;47.984;7.842;2023-02-25T12:06:14;8.30;78.70
17697;DHT22;8967;47.984;7.842;2023-02-25T12:12:19;8.30;78.10
17697;DHT22;8967;47.984;7.842;2023-02-25T12:15:15;8.30;78.20
17697;DHT22;8967;47.984;7.842;2023-02-25T12:18:25;8.30;76.90
17697;DHT22;8967;47.984;7.842;2023-02-25T12:21:37;8.30;77.20
17697;DHT22;8967;47.984;7.842;2023-02-25T12:24:34;8.30;76.40
17697;DHT22;8967;47.984;7.842;2023-02-25T12:27:36;8.20;76.40
17697;DHT22;8967;47.984;7.842;2023-02-25T12:30:46;8.20;76.20
17697;DHT22;8967;47.984;7.842;2023-02-25T12:33:44;8.20;76.50
17697;DHT22;8967;47.984;7.842;2023-02-25T12:36:28;8.20;76.50
17697;DHT22;8967;47.984;7.842;2023-02-25T12:39:18;8.10;76.30
17697;DHT22;8967;47.984;7.842;2023-02-25T12:41:56;8.10;76.70
17697;DHT22;8967;47.984;7.842;2023-02-25T12:47:23;8.10;77.00
17697;DHT22;8967;47.984;7.842;2023-02-25T12:52:51;8.00;77.20
17697;DHT22;8967;47.984;7.842;2023-02-25T12:55:40;7.90;76.90
17697;DHT22;8967;47.984;7.842;2023-02-25T12:58:31;7.90;77.80
17697;DHT22;8967;47.984;7.842;2023-02-25T13:10:28;7.70;78.40
17697;DHT22;8967;47.984;7.842;2023-02-25T13:13:17;7.70;79.20
17697;DHT22;8967;47.984;7.842;2023-02-25T13:15:58;7.70;79.80
17697;DHT22;8967;47.984;7.842;2023-02-25T13:18:37;7.70;79.70
17697;DHT22;8967;47.984;7.842;2023-02-25T13:21:42;7.70;79.40
17697;DHT22;8967;47.984;7.842;2023-02-25T13:24:24;7.80;80.10
17697;DHT22;8967;47.984;7.842;2023-02-25T13:27:18;7.80;79.80
17697;DHT22;8967;47.984;7.842;2023-02-25T13:32:45;7.80;79.00
17697;DHT22;8967;47.984;7.842;2023-02-25T13:35:23;7.70;79.50
17697;DHT22;8967;47.984;7.842;2023-02-25T13:38:03;7.70;79.70
17697;DHT22;8967;47.984;7.842;2023-02-25T13:40:50;7.70;79.60
17697;DHT22;8967;47.984;7.842;2023-02-25T13:43:42;7.60;79.70
17697;DHT22;8967;47.984;7.842;2023-02-25T13:50:01;7.60;79.00
17697;DHT22;8967;47.984;7.842;2023-02-25T13:52:32;7.50;79.40
17697;DHT22;8967;47.984;7.842;2023-02-25T13:55:21;7.50;79.40
17697;DHT22;8967;47.984;7.842;2023-02-25T13:58:25;7.50;79.70
17697;DHT22;8967;47.984;7.842;2023-02-25T14:01:39;7.50;79.80
17697;DHT22;8967;47.984;7.842;2023-02-25T14:04:51;7.50;80.10
17697;DHT22;8967;47.984;7.842;2023-02-25T14:10:20;7.50;78.70
17697;DHT22;8967;47.984;7.842;2023-02-25T14:13:10;7.50;78.70
17697;DHT22;8967;47.984;7.842;2023-02-25T14:15:49;7.60;78.70
17697;DHT22;8967;47.984;7.842;2023-02-25T14:18:26;7.50;78.60
17697;DHT22;8967;47.984;7.842;2023-02-25T14:21:10;7.60;78.80
17697;DHT22;8967;47.984;7.842;2023-02-25T14:23:49;7.50;79.40
17697;DHT22;8967;47.984;7.842;2023-02-25T14:26:31;7.50;78.60
17697;DHT22;8967;47.984;7.842;2023-02-25T14:29:12;7.50;78.80
17697;DHT22;8967;47.984;7.842;2023-02-25T14:32:03;7.60;78.90
17697;DHT22;8967;47.984;7.842;2023-02-25T14:34:44;7.60;78.90
17697;DHT22;8967;47.984;7.842;2023-02-25T14:37:27;7.60;78.90
17697;DHT22;8967;47.984;7.842;2023-02-25T14:40:09;7.60;79.20
17697;DHT22;8967;47.984;7.842;2023-02-25T14:42:49;7.70;79.10
17697;DHT22;8967;47.984;7.842;2023-02-25T14:45:23;7.60;78.60
17697;DHT22;8967;47.984;7.842;2023-02-25T14:47:59;7.70;79.10
17697;DHT22;8967;47.984;7.842;2023-02-25T14:50:32;7.70;79.10
17697;DHT22;8967;47.984;7.842;2023-02-25T14:53:16;7.70;79.00
17697;DHT22;8967;47.984;7.842;2023-02-25T14:56:04;7.70;78.80
17697;DHT22;8967;47.984;7.842;2023-02-25T14:58:55;7.70;78.70
17697;DHT22;8967;47.984;7.842;2023-02-25T15:01:59;7.70;78.10
17697;DHT22;8967;47.984;7.842;2023-02-25T15:07:55;7.70;76.90
17697;DHT22;8967;47.984;7.842;2023-02-25T15:10:35;7.70;77.10
17697;DHT22;8967;47.984;7.842;2023-02-25T15:16:24;7.70;76.80
17697;DHT22;8967;47.984;7.842;2023-02-25T15:19:07;7.70;76.60
17697;DHT22;8967;47.984;7.842;2023-02-25T15:21:46;7.70;76.40
17697;DHT22;8967;47.984;7.842;2023-02-25T15:24:35;7.70;76.30
17697;DHT22;8967;47.984;7.842;2023-02-25T15:27:43;7.70;76.10
17697;DHT22;8967;47.984;7.842;2023-02-25T15:30:12;7.60;75.80
17697;DHT22;8967;47.984;7.842;2023-02-25T15:35:54;7.60;75.50
17697;DHT22;8967;47.984;7.842;2023-02-25T15:38:39;7.60;74.80
17697;DHT22;8967;47.984;7.842;2023-02-25T15:41:41;7.60;75.20
17697;DHT22;8967;47.984;7.842;2023-02-25T15:44:35;7.50;75.10
17697;DHT22;8967;47.984;7.842;2023-02-25T15:47:32;7.50;75.00
17697;DHT22;8967;47.984;7.842;2023-02-25T15:50:00;7.50;75.70
17697;DHT22;8967;47.984;7.842;2023-02-25T15:52:56;7.50;75.50
17697;DHT22;8967;47.984;7.842;2023-02-25T15:55:35;7.50;75.90
17697;DHT22;8967;47.984;7.842;2023-02-25T15:58:42;7.50;76.00
17697;DHT22;8967;47.984;7.842;2023-02-25T16:01:37;7.50;75.80
17697;DHT22;8967;47.984;7.842;2023-02-25T16:04:40;7.50;76.10
17697;DHT22;8967;47.984;7.842;2023-02-25T16:07:13;7.40;76.40
17697;DHT22;8967;47.984;7.842;2023-02-25T16:09:45;7.40;76.70
17697;DHT22;8967;47.984;7.842;2023-02-25T16:12:15;7.40;77.10
17697;DHT22;8967;47.984;7.842;2023-02-25T16:14:43;7.40;77.50
17697;DHT22;8967;47.984;7.842;2023-02-25T16:17:18;7.40;77.60
17697;DHT22;8967;47.984;7.842;2023-02-25T16:19:49;7.40;77.70
17697;DHT22;8967;47.984;7.842;2023-02-25T16:22:20;7.40;77.60
17697;DHT22;8967;47.984;7.842;2023-02-25T16:24:49;7.40;77.70
17697;DHT22;8967;47.984;7.842;2023-02-25T16:27:28;7.40;77.70
17697;DHT22;8967;47.984;7.842;2023-02-25T16:30:05;7.30;77.60
17697;DHT22;8967;47.984;7.842;2023-02-25T16:32:41;7.30;77.70
17697;DHT22;8967;47.984;7.842;2023-02-25T16:35:20;7.30;77.80
17697;DHT22;8967;47.984;7.842;2023-02-25T16:37:55;7.30;77.60
17697;DHT22;8967;47.984;7.842;2023-02-25T16:40:28;7.30;77.90
17697;DHT22;8967;47.984;7.842;2023-02-25T16:42:58;7.20;77.60
17697;DHT22;8967;47.984;7.842;2023-02-25T16:45:27;7.20;77.40
17697;DHT22;8967;47.984;7.842;2023-02-25T16:47:57;7.20;76.70
17697;DHT22;8967;47.984;7.842;2023-02-25T16:50:26;7.10;76.70
17697;DHT22;8967;47.984;7.842;2023-02-25T16:52:55;7.10;77.10
17697;DHT22;8967;47.984;7.842;2023-02-25T16:55:26;7.10;77.20
17697;DHT22;8967;47.984;7.842;2023-02-25T16:58:02;7.10;76.90
17697;DHT22;8967;47.984;7.842;2023-02-25T17:00:29;7.10;76.90
17697;DHT22;8967;47.984;7.842;2023-02-25T17:03:01;7.00;76.70
17697;DHT22;8967;47.984;7.842;2023-02-25T17:05:33;7.00;76.90
17697;DHT22;8967;47.984;7.842;2023-02-25T17:08:03;7.00;77.40
17697;DHT22;8967;47.984;7.842;2023-02-25T17:10:33;7.00;77.20
17697;DHT22;8967;47.984;7.842;2023-02-25T17:13:02;7.00;77.70
17697;DHT22;8967;47.984;7.842;2023-02-25T17:15:32;7.00;77.50
17697;DHT22;8967;47.984;7.842;2023-02-25T17:18:05;7.00;78.10
17697;DHT22;8967;47.984;7.842;2023-02-25T17:20:33;7.00;78.30
17697;DHT22;8967;47.984;7.842;2023-02-25T17:23:03;7.00;78.80
17697;DHT22;8967;47.984;7.842;2023-02-25T17:25:37;7.00;78.60